KAVL/AVL METAR and TAF weather

Enter ICAO airport designator
Station Type Date Time Source
KAVL METAR 2024/06/14 21:54 UTC NOAA

KAVL 142154Z VRB04KT 10SM FEW110 29/17 A2999 RMK AO2 SLP126 T02940172


Station Type Date Time Source
KAVL Decoded METAR 2024/06/14 21:54 UTC NOAA

ASHEVILLE REGIONAL AIRPORT, NC, United States (KAVL) 35-26N 82-32W 670M
Jun 14, 2024 - 05:54 PM EDT / 2024.06.14 2154 UTC
Wind: Variable at 5 MPH (4 KT):0
Visibility: 10 mile(s):0
Sky conditions: mostly clear
Temperature: 84.9 F (29.4 C)
Dew Point: 63.0 F (17.2 C)
Relative Humidity: 47%
Pressure (altimeter): 29.99 in. Hg (1015 hPa)
ob: KAVL 142154Z VRB04KT 10SM FEW110 29/17 A2999 RMK AO2 SLP126 T02940172
cycle: 22

Station Type Date Time Source
KAVL TAF 2024/06/14 18:42 UTC NOAA